sensor_id;sensor_type;location;lat;lon;timestamp;P1;durP1;ratioP1;P2;durP2;ratioP2
22490;SDS011;11412;50.802;4.350;2024-03-08T00:02:13;21.85;;;13.35;;
22490;SDS011;11412;50.802;4.350;2024-03-08T00:04:39;19.55;;;14.07;;
22490;SDS011;11412;50.802;4.350;2024-03-08T00:07:05;20.42;;;15.35;;
22490;SDS011;11412;50.802;4.350;2024-03-08T00:09:32;20.70;;;13.85;;
22490;SDS011;11412;50.802;4.350;2024-03-08T00:11:57;20.30;;;14.55;;
22490;SDS011;11412;50.802;4.350;2024-03-08T00:14:23;23.17;;;14.68;;
22490;SDS011;11412;50.802;4.350;2024-03-08T00:16:49;20.75;;;14.57;;
22490;SDS011;11412;50.802;4.350;2024-03-08T00:19:15;19.13;;;14.15;;
22490;SDS011;11412;50.802;4.350;2024-03-08T00:21:41;18.52;;;14.55;;
22490;SDS011;11412;50.802;4.350;2024-03-08T00:24:07;21.90;;;14.48;;
22490;SDS011;11412;50.802;4.350;2024-03-08T00:26:33;23.60;;;14.73;;
22490;SDS011;11412;50.802;4.350;2024-03-08T00:28:58;23.73;;;15.05;;
22490;SDS011;11412;50.802;4.350;2024-03-08T00:31:24;21.35;;;15.43;;
22490;SDS011;11412;50.802;4.350;2024-03-08T00:33:50;20.95;;;15.20;;
22490;SDS011;11412;50.802;4.350;2024-03-08T00:36:17;20.50;;;14.52;;
22490;SDS011;11412;50.802;4.350;2024-03-08T00:38:43;22.83;;;15.50;;
22490;SDS011;11412;50.802;4.350;2024-03-08T00:41:08;18.95;;;13.95;;
22490;SDS011;11412;50.802;4.350;2024-03-08T00:43:34;21.98;;;15.52;;
22490;SDS011;11412;50.802;4.350;2024-03-08T00:46:00;24.33;;;15.48;;
22490;SDS011;11412;50.802;4.350;2024-03-08T00:48:26;21.58;;;15.35;;
22490;SDS011;11412;50.802;4.350;2024-03-08T00:50:52;22.42;;;15.13;;
22490;SDS011;11412;50.802;4.350;2024-03-08T00:53:18;22.60;;;15.00;;
22490;SDS011;11412;50.802;4.350;2024-03-08T00:55:44;24.55;;;16.17;;
22490;SDS011;11412;50.802;4.350;2024-03-08T00:58:11;22.13;;;15.30;;
22490;SDS011;11412;50.802;4.350;2024-03-08T01:00:37;24.77;;;16.70;;
22490;SDS011;11412;50.802;4.350;2024-03-08T01:03:04;21.17;;;14.35;;
22490;SDS011;11412;50.802;4.350;2024-03-08T01:05:30;22.60;;;15.48;;
22490;SDS011;11412;50.802;4.350;2024-03-08T01:07:56;18.77;;;14.50;;
22490;SDS011;11412;50.802;4.350;2024-03-08T01:10:21;22.17;;;15.98;;
22490;SDS011;11412;50.802;4.350;2024-03-08T01:12:47;22.08;;;15.93;;
22490;SDS011;11412;50.802;4.350;2024-03-08T01:15:14;20.25;;;14.88;;
22490;SDS011;11412;50.802;4.350;2024-03-08T01:17:40;23.90;;;15.25;;
22490;SDS011;11412;50.802;4.350;2024-03-08T01:20:06;24.70;;;15.70;;
22490;SDS011;11412;50.802;4.350;2024-03-08T01:22:36;21.65;;;15.80;;
22490;SDS011;11412;50.802;4.350;2024-03-08T01:25:01;22.67;;;16.58;;
22490;SDS011;11412;50.802;4.350;2024-03-08T01:27:29;22.42;;;16.17;;
22490;SDS011;11412;50.802;4.350;2024-03-08T01:29:56;22.13;;;15.75;;
22490;SDS011;11412;50.802;4.350;2024-03-08T01:32:23;24.98;;;15.55;;
22490;SDS011;11412;50.802;4.350;2024-03-08T01:34:49;26.38;;;16.45;;
22490;SDS011;11412;50.802;4.350;2024-03-08T01:37:14;21.63;;;16.30;;
22490;SDS011;11412;50.802;4.350;2024-03-08T01:39:40;24.23;;;16.77;;
22490;SDS011;11412;50.802;4.350;2024-03-08T01:42:06;23.15;;;16.42;;
22490;SDS011;11412;50.802;4.350;2024-03-08T01:44:32;24.33;;;17.50;;
22490;SDS011;11412;50.802;4.350;2024-03-08T01:46:57;22.45;;;16.17;;
22490;SDS011;11412;50.802;4.350;2024-03-08T01:49:24;24.52;;;15.80;;
22490;SDS011;11412;50.802;4.350;2024-03-08T01:51:51;24.05;;;16.73;;
22490;SDS011;11412;50.802;4.350;2024-03-08T01:54:17;21.88;;;16.20;;
22490;SDS011;11412;50.802;4.350;2024-03-08T01:56:45;22.40;;;16.55;;
22490;SDS011;11412;50.802;4.350;2024-03-08T01:59:11;23.02;;;16.65;;
22490;SDS011;11412;50.802;4.350;2024-03-08T02:01:39;25.33;;;17.33;;
22490;SDS011;11412;50.802;4.350;2024-03-08T02:04:05;23.45;;;16.80;;
22490;SDS011;11412;50.802;4.350;2024-03-08T02:06:32;23.85;;;17.02;;
22490;SDS011;11412;50.802;4.350;2024-03-08T02:08:58;24.35;;;16.88;;
22490;SDS011;11412;50.802;4.350;2024-03-08T02:11:24;24.63;;;17.27;;
22490;SDS011;11412;50.802;4.350;2024-03-08T02:13:50;26.02;;;17.92;;
22490;SDS011;11412;50.802;4.350;2024-03-08T02:16:24;26.95;;;17.17;;
22490;SDS011;11412;50.802;4.350;2024-03-08T02:18:50;23.45;;;17.38;;
22490;SDS011;11412;50.802;4.350;2024-03-08T02:21:16;25.30;;;17.50;;
22490;SDS011;11412;50.802;4.350;2024-03-08T02:23:46;25.80;;;18.13;;
22490;SDS011;11412;50.802;4.350;2024-03-08T02:26:12;24.95;;;18.02;;
22490;SDS011;11412;50.802;4.350;2024-03-08T02:28:37;24.05;;;17.77;;
22490;SDS011;11412;50.802;4.350;2024-03-08T02:31:04;25.45;;;18.20;;
22490;SDS011;11412;50.802;4.350;2024-03-08T02:33:33;25.60;;;17.83;;
22490;SDS011;11412;50.802;4.350;2024-03-08T02:35:59;23.33;;;18.85;;
22490;SDS011;11412;50.802;4.350;2024-03-08T02:38:25;22.48;;;17.30;;
22490;SDS011;11412;50.802;4.350;2024-03-08T02:40:52;24.60;;;18.73;;
22490;SDS011;11412;50.802;4.350;2024-03-08T02:43:19;24.20;;;18.80;;
22490;SDS011;11412;50.802;4.350;2024-03-08T02:45:47;23.25;;;18.02;;
22490;SDS011;11412;50.802;4.350;2024-03-08T02:48:13;22.55;;;18.48;;
22490;SDS011;11412;50.802;4.350;2024-03-08T02:50:41;25.40;;;18.40;;
22490;SDS011;11412;50.802;4.350;2024-03-08T02:53:10;23.25;;;17.95;;
22490;SDS011;11412;50.802;4.350;2024-03-08T02:55:38;24.08;;;18.33;;
22490;SDS011;11412;50.802;4.350;2024-03-08T02:58:04;23.48;;;18.70;;
22490;SDS011;11412;50.802;4.350;2024-03-08T03:00:30;25.58;;;17.80;;
22490;SDS011;11412;50.802;4.350;2024-03-08T03:02:57;21.15;;;17.60;;
22490;SDS011;11412;50.802;4.350;2024-03-08T03:05:23;24.23;;;19.13;;
22490;SDS011;11412;50.802;4.350;2024-03-08T03:07:49;23.20;;;17.83;;
22490;SDS011;11412;50.802;4.350;2024-03-08T03:10:18;24.00;;;18.70;;
22490;SDS011;11412;50.802;4.350;2024-03-08T03:12:47;23.33;;;19.35;;
22490;SDS011;11412;50.802;4.350;2024-03-08T03:15:16;26.70;;;19.13;;
22490;SDS011;11412;50.802;4.350;2024-03-08T03:17:48;22.42;;;18.52;;
22490;SDS011;11412;50.802;4.350;2024-03-08T03:20:18;25.52;;;19.50;;
22490;SDS011;11412;50.802;4.350;2024-03-08T03:22:57;27.20;;;19.48;;
22490;SDS011;11412;50.802;4.350;2024-03-08T03:25:26;25.20;;;19.75;;
22490;SDS011;11412;50.802;4.350;2024-03-08T03:27:58;23.83;;;19.80;;
22490;SDS011;11412;50.802;4.350;2024-03-08T03:30:24;26.17;;;20.65;;
22490;SDS011;11412;50.802;4.350;2024-03-08T03:32:51;26.45;;;20.75;;
22490;SDS011;11412;50.802;4.350;2024-03-08T03:35:19;26.67;;;19.70;;
22490;SDS011;11412;50.802;4.350;2024-03-08T03:37:46;26.52;;;20.15;;
22490;SDS011;11412;50.802;4.350;2024-03-08T03:40:47;27.25;;;20.55;;
22490;SDS011;11412;50.802;4.350;2024-03-08T03:43:15;26.65;;;20.60;;
22490;SDS011;11412;50.802;4.350;2024-03-08T03:45:40;26.95;;;20.73;;
22490;SDS011;11412;50.802;4.350;2024-03-08T03:48:06;26.95;;;20.83;;
22490;SDS011;11412;50.802;4.350;2024-03-08T03:50:36;25.40;;;20.90;;
22490;SDS011;11412;50.802;4.350;2024-03-08T03:53:02;26.25;;;20.58;;
22490;SDS011;11412;50.802;4.350;2024-03-08T03:55:29;26.48;;;20.13;;
22490;SDS011;11412;50.802;4.350;2024-03-08T03:57:55;26.38;;;21.27;;
22490;SDS011;11412;50.802;4.350;2024-03-08T04:00:21;25.10;;;20.27;;
22490;SDS011;11412;50.802;4.350;2024-03-08T04:02:47;25.05;;;20.15;;
22490;SDS011;11412;50.802;4.350;2024-03-08T04:05:12;28.80;;;20.75;;
22490;SDS011;11412;50.802;4.350;2024-03-08T04:07:38;26.15;;;20.60;;
22490;SDS011;11412;50.802;4.350;2024-03-08T04:10:05;25.13;;;20.75;;
22490;SDS011;11412;50.802;4.350;2024-03-08T04:12:32;26.42;;;21.45;;
22490;SDS011;11412;50.802;4.350;2024-03-08T04:14:58;23.10;;;19.77;;
22490;SDS011;11412;50.802;4.350;2024-03-08T04:17:24;27.00;;;21.27;;
22490;SDS011;11412;50.802;4.350;2024-03-08T04:19:50;23.90;;;20.00;;
22490;SDS011;11412;50.802;4.350;2024-03-08T04:22:16;26.95;;;21.40;;
22490;SDS011;11412;50.802;4.350;2024-03-08T04:24:43;27.80;;;21.25;;
22490;SDS011;11412;50.802;4.350;2024-03-08T04:27:09;26.95;;;20.80;;
22490;SDS011;11412;50.802;4.350;2024-03-08T04:29:35;28.27;;;22.05;;
22490;SDS011;11412;50.802;4.350;2024-03-08T04:32:04;28.83;;;21.55;;
22490;SDS011;11412;50.802;4.350;2024-03-08T04:34:32;25.52;;;20.70;;
22490;SDS011;11412;50.802;4.350;2024-03-08T04:36:59;27.02;;;21.80;;
22490;SDS011;11412;50.802;4.350;2024-03-08T04:39:25;27.58;;;21.33;;
22490;SDS011;11412;50.802;4.350;2024-03-08T04:41:53;27.85;;;21.90;;
22490;SDS011;11412;50.802;4.350;2024-03-08T04:44:24;27.33;;;20.98;;
22490;SDS011;11412;50.802;4.350;2024-03-08T04:46:50;27.35;;;21.63;;
22490;SDS011;11412;50.802;4.350;2024-03-08T04:49:15;25.67;;;20.95;;
22490;SDS011;11412;50.802;4.350;2024-03-08T04:51:41;26.23;;;21.05;;
22490;SDS011;11412;50.802;4.350;2024-03-08T04:54:07;24.48;;;20.38;;
22490;SDS011;11412;50.802;4.350;2024-03-08T04:56:33;29.58;;;21.65;;
22490;SDS011;11412;50.802;4.350;2024-03-08T04:58:59;30.83;;;21.27;;
22490;SDS011;11412;50.802;4.350;2024-03-08T05:01:24;25.85;;;21.27;;
22490;SDS011;11412;50.802;4.350;2024-03-08T05:03:50;31.02;;;21.20;;
22490;SDS011;11412;50.802;4.350;2024-03-08T05:06:19;26.42;;;20.80;;
22490;SDS011;11412;50.802;4.350;2024-03-08T05:08:45;27.08;;;21.05;;
22490;SDS011;11412;50.802;4.350;2024-03-08T05:11:11;25.33;;;21.30;;
22490;SDS011;11412;50.802;4.350;2024-03-08T05:13:40;25.38;;;21.08;;
22490;SDS011;11412;50.802;4.350;2024-03-08T05:16:06;26.80;;;21.73;;
22490;SDS011;11412;50.802;4.350;2024-03-08T05:18:35;26.70;;;21.65;;
22490;SDS011;11412;50.802;4.350;2024-03-08T05:21:01;31.08;;;21.58;;
22490;SDS011;11412;50.802;4.350;2024-03-08T05:23:29;26.70;;;21.23;;
22490;SDS011;11412;50.802;4.350;2024-03-08T05:25:55;27.75;;;21.55;;
22490;SDS011;11412;50.802;4.350;2024-03-08T05:28:21;27.42;;;20.80;;
22490;SDS011;11412;50.802;4.350;2024-03-08T05:30:47;26.98;;;21.77;;
22490;SDS011;11412;50.802;4.350;2024-03-08T05:33:12;27.38;;;21.90;;
22490;SDS011;11412;50.802;4.350;2024-03-08T05:35:39;27.55;;;22.17;;
22490;SDS011;11412;50.802;4.350;2024-03-08T05:38:06;27.45;;;21.70;;
22490;SDS011;11412;50.802;4.350;2024-03-08T05:40:32;28.50;;;21.80;;
22490;SDS011;11412;50.802;4.350;2024-03-08T05:42:58;25.88;;;20.65;;
22490;SDS011;11412;50.802;4.350;2024-03-08T05:45:26;25.80;;;21.08;;
22490;SDS011;11412;50.802;4.350;2024-03-08T05:47:52;26.02;;;21.85;;
22490;SDS011;11412;50.802;4.350;2024-03-08T05:50:18;26.52;;;21.02;;
22490;SDS011;11412;50.802;4.350;2024-03-08T05:52:44;27.30;;;21.55;;
22490;SDS011;11412;50.802;4.350;2024-03-08T05:55:10;28.08;;;20.95;;
22490;SDS011;11412;50.802;4.350;2024-03-08T05:57:39;27.00;;;21.10;;
22490;SDS011;11412;50.802;4.350;2024-03-08T06:00:05;27.00;;;21.08;;
22490;SDS011;11412;50.802;4.350;2024-03-08T06:02:32;26.02;;;20.65;;
22490;SDS011;11412;50.802;4.350;2024-03-08T06:04:58;30.88;;;22.00;;
22490;SDS011;11412;50.802;4.350;2024-03-08T06:07:24;28.38;;;22.95;;
22490;SDS011;11412;50.802;4.350;2024-03-08T06:09:49;29.15;;;22.33;;
22490;SDS011;11412;50.802;4.350;2024-03-08T06:12:15;30.70;;;21.75;;
22490;SDS011;11412;50.802;4.350;2024-03-08T06:14:45;27.30;;;21.35;;
22490;SDS011;11412;50.802;4.350;2024-03-08T06:17:11;26.70;;;21.15;;
22490;SDS011;11412;50.802;4.350;2024-03-08T06:19:36;28.27;;;21.00;;
22490;SDS011;11412;50.802;4.350;2024-03-08T06:22:02;26.42;;;21.02;;
22490;SDS011;11412;50.802;4.350;2024-03-08T06:24:33;29.73;;;22.42;;
22490;SDS011;11412;50.802;4.350;2024-03-08T06:27:01;28.02;;;21.75;;
22490;SDS011;11412;50.802;4.350;2024-03-08T06:29:27;28.63;;;21.73;;
22490;SDS011;11412;50.802;4.350;2024-03-08T06:31:53;29.02;;;21.02;;
22490;SDS011;11412;50.802;4.350;2024-03-08T06:34:19;30.13;;;20.50;;
22490;SDS011;11412;50.802;4.350;2024-03-08T06:36:44;27.88;;;21.45;;
22490;SDS011;11412;50.802;4.350;2024-03-08T06:39:10;32.58;;;21.63;;
22490;SDS011;11412;50.802;4.350;2024-03-08T06:41:36;28.25;;;21.25;;
22490;SDS011;11412;50.802;4.350;2024-03-08T06:44:02;28.85;;;21.65;;
22490;SDS011;11412;50.802;4.350;2024-03-08T06:46:28;28.67;;;21.67;;
22490;SDS011;11412;50.802;4.350;2024-03-08T06:48:54;27.55;;;21.25;;
22490;SDS011;11412;50.802;4.350;2024-03-08T06:51:19;30.13;;;21.02;;
22490;SDS011;11412;50.802;4.350;2024-03-08T06:53:45;28.70;;;21.73;;
22490;SDS011;11412;50.802;4.350;2024-03-08T06:56:11;27.83;;;22.10;;
22490;SDS011;11412;50.802;4.350;2024-03-08T06:58:37;29.98;;;21.73;;
22490;SDS011;11412;50.802;4.350;2024-03-08T07:01:02;27.65;;;21.40;;
22490;SDS011;11412;50.802;4.350;2024-03-08T07:03:32;27.33;;;20.75;;
22490;SDS011;11412;50.802;4.350;2024-03-08T07:05:58;29.25;;;21.38;;
22490;SDS011;11412;50.802;4.350;2024-03-08T07:08:24;28.80;;;20.33;;
22490;SDS011;11412;50.802;4.350;2024-03-08T07:10:52;31.33;;;22.30;;
22490;SDS011;11412;50.802;4.350;2024-03-08T07:13:18;27.25;;;21.67;;
22490;SDS011;11412;50.802;4.350;2024-03-08T07:15:44;28.75;;;21.65;;
22490;SDS011;11412;50.802;4.350;2024-03-08T07:18:10;25.25;;;20.63;;
22490;SDS011;11412;50.802;4.350;2024-03-08T07:20:41;29.08;;;20.77;;
22490;SDS011;11412;50.802;4.350;2024-03-08T07:23:07;26.88;;;21.67;;
22490;SDS011;11412;50.802;4.350;2024-03-08T07:25:33;27.70;;;20.77;;
22490;SDS011;11412;50.802;4.350;2024-03-08T07:28:00;26.25;;;21.23;;
22490;SDS011;11412;50.802;4.350;2024-03-08T07:30:26;28.02;;;21.27;;
22490;SDS011;11412;50.802;4.350;2024-03-08T07:33:10;24.88;;;19.58;;
22490;SDS011;11412;50.802;4.350;2024-03-08T07:35:37;26.95;;;19.58;;
22490;SDS011;11412;50.802;4.350;2024-03-08T07:38:04;27.60;;;20.98;;
22490;SDS011;11412;50.802;4.350;2024-03-08T07:40:30;26.10;;;20.42;;
22490;SDS011;11412;50.802;4.350;2024-03-08T07:43:09;25.85;;;19.25;;
22490;SDS011;11412;50.802;4.350;2024-03-08T07:45:36;30.00;;;20.25;;
22490;SDS011;11412;50.802;4.350;2024-03-08T07:48:05;25.92;;;19.50;;
22490;SDS011;11412;50.802;4.350;2024-03-08T07:50:36;25.73;;;19.42;;
22490;SDS011;11412;50.802;4.350;2024-03-08T07:53:02;25.48;;;19.98;;
22490;SDS011;11412;50.802;4.350;2024-03-08T07:55:29;26.58;;;20.02;;
22490;SDS011;11412;50.802;4.350;2024-03-08T07:57:56;24.63;;;18.10;;
22490;SDS011;11412;50.802;4.350;2024-03-08T08:00:22;24.38;;;18.80;;
22490;SDS011;11412;50.802;4.350;2024-03-08T08:02:49;24.60;;;19.50;;
22490;SDS011;11412;50.802;4.350;2024-03-08T08:05:15;29.77;;;19.75;;
22490;SDS011;11412;50.802;4.350;2024-03-08T08:07:46;27.85;;;19.23;;
22490;SDS011;11412;50.802;4.350;2024-03-08T08:10:15;24.77;;;17.48;;
22490;SDS011;11412;50.802;4.350;2024-03-08T08:12:47;25.80;;;17.83;;
22490;SDS011;11412;50.802;4.350;2024-03-08T08:15:13;25.25;;;18.05;;
22490;SDS011;11412;50.802;4.350;2024-03-08T08:17:40;26.10;;;19.58;;
22490;SDS011;11412;50.802;4.350;2024-03-08T08:20:07;24.25;;;17.90;;
22490;SDS011;11412;50.802;4.350;2024-03-08T08:22:34;30.63;;;18.60;;
22490;SDS011;11412;50.802;4.350;2024-03-08T08:24:59;26.42;;;17.67;;
22490;SDS011;11412;50.802;4.350;2024-03-08T08:27:26;28.15;;;17.83;;
22490;SDS011;11412;50.802;4.350;2024-03-08T08:29:52;25.20;;;18.40;;
22490;SDS011;11412;50.802;4.350;2024-03-08T08:32:18;28.05;;;17.65;;
22490;SDS011;11412;50.802;4.350;2024-03-08T08:34:45;22.77;;;17.05;;
22490;SDS011;11412;50.802;4.350;2024-03-08T08:37:11;26.35;;;18.17;;
22490;SDS011;11412;50.802;4.350;2024-03-08T08:39:37;23.63;;;16.27;;
22490;SDS011;11412;50.802;4.350;2024-03-08T08:42:03;24.20;;;17.05;;
22490;SDS011;11412;50.802;4.350;2024-03-08T08:44:29;22.00;;;15.73;;
22490;SDS011;11412;50.802;4.350;2024-03-08T08:46:56;23.23;;;14.85;;
22490;SDS011;11412;50.802;4.350;2024-03-08T08:49:22;23.10;;;14.65;;
22490;SDS011;11412;50.802;4.350;2024-03-08T08:51:49;19.23;;;14.18;;
22490;SDS011;11412;50.802;4.350;2024-03-08T08:54:15;18.63;;;13.85;;
22490;SDS011;11412;50.802;4.350;2024-03-08T08:56:42;19.50;;;14.40;;
22490;SDS011;11412;50.802;4.350;2024-03-08T08:59:12;19.38;;;14.32;;
22490;SDS011;11412;50.802;4.350;2024-03-08T09:01:44;19.77;;;15.27;;
22490;SDS011;11412;50.802;4.350;2024-03-08T09:04:13;18.75;;;14.45;;
22490;SDS011;11412;50.802;4.350;2024-03-08T09:06:38;23.20;;;14.82;;
22490;SDS011;11412;50.802;4.350;2024-03-08T09:09:06;20.17;;;15.02;;
22490;SDS011;11412;50.802;4.350;2024-03-08T09:11:36;19.48;;;13.98;;
22490;SDS011;11412;50.802;4.350;2024-03-08T09:14:06;19.48;;;14.88;;
22490;SDS011;11412;50.802;4.350;2024-03-08T09:16:32;18.10;;;14.90;;
22490;SDS011;11412;50.802;4.350;2024-03-08T09:18:58;23.00;;;14.73;;
22490;SDS011;11412;50.802;4.350;2024-03-08T09:21:24;19.65;;;13.88;;
22490;SDS011;11412;50.802;4.350;2024-03-08T09:23:52;17.77;;;13.25;;
22490;SDS011;11412;50.802;4.350;2024-03-08T09:26:18;19.40;;;14.38;;
22490;SDS011;11412;50.802;4.350;2024-03-08T09:28:44;21.20;;;14.70;;
22490;SDS011;11412;50.802;4.350;2024-03-08T09:31:10;21.83;;;15.23;;
22490;SDS011;11412;50.802;4.350;2024-03-08T09:33:37;19.63;;;13.82;;
22490;SDS011;11412;50.802;4.350;2024-03-08T09:36:04;17.27;;;13.65;;
22490;SDS011;11412;50.802;4.350;2024-03-08T09:38:32;20.42;;;14.02;;
22490;SDS011;11412;50.802;4.350;2024-03-08T09:40:59;20.75;;;13.55;;
22490;SDS011;11412;50.802;4.350;2024-03-08T09:43:27;19.30;;;14.55;;
22490;SDS011;11412;50.802;4.350;2024-03-08T09:45:53;19.52;;;13.52;;
22490;SDS011;11412;50.802;4.350;2024-03-08T09:48:20;18.70;;;13.10;;
22490;SDS011;11412;50.802;4.350;2024-03-08T09:50:47;20.67;;;14.45;;
22490;SDS011;11412;50.802;4.350;2024-03-08T09:53:14;20.17;;;13.93;;
22490;SDS011;11412;50.802;4.350;2024-03-08T09:55:40;21.20;;;13.80;;
22490;SDS011;11412;50.802;4.350;2024-03-08T09:58:11;19.38;;;13.90;;
22490;SDS011;11412;50.802;4.350;2024-03-08T10:01:07;22.23;;;15.30;;
22490;SDS011;11412;50.802;4.350;2024-03-08T10:03:33;19.92;;;13.77;;
22490;SDS011;11412;50.802;4.350;2024-03-08T10:05:59;18.10;;;13.32;;
22490;SDS011;11412;50.802;4.350;2024-03-08T10:08:27;19.48;;;14.48;;
22490;SDS011;11412;50.802;4.350;2024-03-08T10:10:56;19.33;;;14.50;;
22490;SDS011;11412;50.802;4.350;2024-03-08T10:13:23;23.77;;;13.80;;
22490;SDS011;11412;50.802;4.350;2024-03-08T10:15:52;18.70;;;13.88;;
22490;SDS011;11412;50.802;4.350;2024-03-08T10:18:17;21.50;;;14.82;;
22490;SDS011;11412;50.802;4.350;2024-03-08T10:20:43;20.33;;;13.63;;
22490;SDS011;11412;50.802;4.350;2024-03-08T10:23:09;20.85;;;13.95;;
22490;SDS011;11412;50.802;4.350;2024-03-08T10:25:35;19.10;;;14.13;;
22490;SDS011;11412;50.802;4.350;2024-03-08T10:28:05;18.55;;;13.93;;
22490;SDS011;11412;50.802;4.350;2024-03-08T10:30:31;18.48;;;13.48;;
22490;SDS011;11412;50.802;4.350;2024-03-08T10:32:57;19.55;;;13.98;;
22490;SDS011;11412;50.802;4.350;2024-03-08T10:35:23;16.60;;;13.73;;
22490;SDS011;11412;50.802;4.350;2024-03-08T10:37:52;18.85;;;13.18;;
22490;SDS011;11412;50.802;4.350;2024-03-08T10:40:24;17.75;;;14.02;;
22490;SDS011;11412;50.802;4.350;2024-03-08T10:42:52;16.55;;;12.50;;
22490;SDS011;11412;50.802;4.350;2024-03-08T10:45:35;22.60;;;14.85;;
22490;SDS011;11412;50.802;4.350;2024-03-08T10:50:59;19.02;;;14.35;;
22490;SDS011;11412;50.802;4.350;2024-03-08T10:53:27;18.13;;;13.98;;
22490;SDS011;11412;50.802;4.350;2024-03-08T10:55:56;18.23;;;13.38;;
22490;SDS011;11412;50.802;4.350;2024-03-08T10:58:22;17.27;;;13.30;;
22490;SDS011;11412;50.802;4.350;2024-03-08T11:00:52;19.52;;;13.73;;
22490;SDS011;11412;50.802;4.350;2024-03-08T11:08:40;16.77;;;13.63;;
22490;SDS011;11412;50.802;4.350;2024-03-08T11:11:06;24.45;;;14.82;;
22490;SDS011;11412;50.802;4.350;2024-03-08T11:13:52;20.95;;;13.18;;
22490;SDS011;11412;50.802;4.350;2024-03-08T11:18:53;17.83;;;13.30;;
22490;SDS011;11412;50.802;4.350;2024-03-08T11:21:19;22.10;;;14.65;;
22490;SDS011;11412;50.802;4.350;2024-03-08T11:24:01;19.88;;;13.95;;
22490;SDS011;11412;50.802;4.350;2024-03-08T11:26:30;20.13;;;13.18;;
22490;SDS011;11412;50.802;4.350;2024-03-08T11:29:32;17.42;;;13.43;;
22490;SDS011;11412;50.802;4.350;2024-03-08T11:32:05;19.35;;;13.63;;
22490;SDS011;11412;50.802;4.350;2024-03-08T11:34:40;17.92;;;13.25;;
22490;SDS011;11412;50.802;4.350;2024-03-08T11:37:16;18.83;;;13.15;;
22490;SDS011;11412;50.802;4.350;2024-03-08T11:39:52;18.27;;;13.27;;
22490;SDS011;11412;50.802;4.350;2024-03-08T11:42:23;16.13;;;12.80;;
22490;SDS011;11412;50.802;4.350;2024-03-08T11:44:51;16.90;;;13.15;;
22490;SDS011;11412;50.802;4.350;2024-03-08T11:47:18;15.95;;;13.00;;
22490;SDS011;11412;50.802;4.350;2024-03-08T11:49:44;16.90;;;12.65;;
22490;SDS011;11412;50.802;4.350;2024-03-08T11:52:13;17.20;;;12.63;;
22490;SDS011;11412;50.802;4.350;2024-03-08T11:54:40;16.30;;;12.65;;
22490;SDS011;11412;50.802;4.350;2024-03-08T11:57:17;15.88;;;12.27;;
22490;SDS011;11412;50.802;4.350;2024-03-08T11:59:53;14.27;;;11.75;;
22490;SDS011;11412;50.802;4.350;2024-03-08T12:02:20;19.55;;;13.57;;
22490;SDS011;11412;50.802;4.350;2024-03-08T12:04:47;17.40;;;13.13;;
22490;SDS011;11412;50.802;4.350;2024-03-08T12:10:13;20.25;;;12.40;;
22490;SDS011;11412;50.802;4.350;2024-03-08T12:13:00;18.77;;;12.75;;
22490;SDS011;11412;50.802;4.350;2024-03-08T12:15:26;17.42;;;12.45;;
22490;SDS011;11412;50.802;4.350;2024-03-08T12:17:54;14.52;;;12.48;;
22490;SDS011;11412;50.802;4.350;2024-03-08T12:20:24;15.85;;;12.60;;
22490;SDS011;11412;50.802;4.350;2024-03-08T12:22:51;18.35;;;12.35;;
22490;SDS011;11412;50.802;4.350;2024-03-08T12:25:18;18.10;;;12.73;;
22490;SDS011;11412;50.802;4.350;2024-03-08T12:27:45;16.73;;;11.95;;
22490;SDS011;11412;50.802;4.350;2024-03-08T12:32:48;16.33;;;11.82;;
22490;SDS011;11412;50.802;4.350;2024-03-08T12:35:26;16.60;;;12.73;;
22490;SDS011;11412;50.802;4.350;2024-03-08T12:37:53;16.67;;;12.88;;
22490;SDS011;11412;50.802;4.350;2024-03-08T12:40:30;20.17;;;12.13;;
22490;SDS011;11412;50.802;4.350;2024-03-08T12:42:57;18.20;;;12.45;;
22490;SDS011;11412;50.802;4.350;2024-03-08T12:45:24;15.35;;;13.07;;
22490;SDS011;11412;50.802;4.350;2024-03-08T12:47:50;18.77;;;12.85;;
22490;SDS011;11412;50.802;4.350;2024-03-08T12:50:16;16.02;;;11.77;;
22490;SDS011;11412;50.802;4.350;2024-03-08T12:52:42;16.65;;;12.23;;
22490;SDS011;11412;50.802;4.350;2024-03-08T12:55:08;17.08;;;11.38;;
22490;SDS011;11412;50.802;4.350;2024-03-08T12:57:34;16.45;;;11.43;;
22490;SDS011;11412;50.802;4.350;2024-03-08T13:00:03;15.93;;;12.15;;
22490;SDS011;11412;50.802;4.350;2024-03-08T13:02:30;15.90;;;11.05;;
22490;SDS011;11412;50.802;4.350;2024-03-08T13:04:58;15.52;;;12.25;;
22490;SDS011;11412;50.802;4.350;2024-03-08T13:07:24;13.02;;;11.07;;
22490;SDS011;11412;50.802;4.350;2024-03-08T13:09:53;15.45;;;11.23;;
22490;SDS011;11412;50.802;4.350;2024-03-08T13:12:20;14.15;;;11.30;;
22490;SDS011;11412;50.802;4.350;2024-03-08T13:14:46;18.85;;;11.25;;
22490;SDS011;11412;50.802;4.350;2024-03-08T13:17:13;15.20;;;11.40;;
22490;SDS011;11412;50.802;4.350;2024-03-08T13:19:39;15.52;;;11.63;;
22490;SDS011;11412;50.802;4.350;2024-03-08T13:22:07;14.05;;;11.10;;
22490;SDS011;11412;50.802;4.350;2024-03-08T13:24:38;16.67;;;10.80;;
22490;SDS011;11412;50.802;4.350;2024-03-08T13:27:06;19.30;;;11.98;;
22490;SDS011;11412;50.802;4.350;2024-03-08T13:29:42;17.60;;;11.25;;
22490;SDS011;11412;50.802;4.350;2024-03-08T13:32:08;15.02;;;11.27;;
22490;SDS011;11412;50.802;4.350;2024-03-08T13:34:37;14.63;;;11.60;;
22490;SDS011;11412;50.802;4.350;2024-03-08T13:37:05;15.57;;;11.57;;
22490;SDS011;11412;50.802;4.350;2024-03-08T13:39:31;16.20;;;10.93;;
22490;SDS011;11412;50.802;4.350;2024-03-08T13:42:08;14.38;;;10.80;;
22490;SDS011;11412;50.802;4.350;2024-03-08T13:44:37;13.95;;;10.25;;
22490;SDS011;11412;50.802;4.350;2024-03-08T13:47:16;16.70;;;11.40;;
22490;SDS011;11412;50.802;4.350;2024-03-08T13:49:45;13.82;;;10.43;;
22490;SDS011;11412;50.802;4.350;2024-03-08T13:52:11;14.65;;;11.02;;
22490;SDS011;11412;50.802;4.350;2024-03-08T13:54:40;14.10;;;11.18;;
22490;SDS011;11412;50.802;4.350;2024-03-08T13:57:06;17.65;;;11.52;;
22490;SDS011;11412;50.802;4.350;2024-03-08T13:59:32;14.10;;;10.65;;
22490;SDS011;11412;50.802;4.350;2024-03-08T14:02:00;13.15;;;10.13;;
22490;SDS011;11412;50.802;4.350;2024-03-08T14:04:30;16.77;;;11.20;;
22490;SDS011;11412;50.802;4.350;2024-03-08T14:06:56;14.38;;;11.05;;
22490;SDS011;11412;50.802;4.350;2024-03-08T14:09:25;17.02;;;10.65;;
22490;SDS011;11412;50.802;4.350;2024-03-08T14:11:54;12.43;;;10.13;;
22490;SDS011;11412;50.802;4.350;2024-03-08T14:14:21;15.13;;;9.85;;
22490;SDS011;11412;50.802;4.350;2024-03-08T14:16:48;14.43;;;10.30;;
22490;SDS011;11412;50.802;4.350;2024-03-08T14:19:18;21.48;;;10.93;;
22490;SDS011;11412;50.802;4.350;2024-03-08T14:21:44;14.52;;;10.27;;
22490;SDS011;11412;50.802;4.350;2024-03-08T14:24:10;12.80;;;10.07;;
22490;SDS011;11412;50.802;4.350;2024-03-08T14:26:35;17.38;;;11.55;;
22490;SDS011;11412;50.802;4.350;2024-03-08T14:29:03;13.57;;;10.88;;
22490;SDS011;11412;50.802;4.350;2024-03-08T14:31:30;13.40;;;10.80;;
22490;SDS011;11412;50.802;4.350;2024-03-08T14:33:56;14.40;;;10.20;;
22490;SDS011;11412;50.802;4.350;2024-03-08T14:36:24;15.38;;;9.70;;
22490;SDS011;11412;50.802;4.350;2024-03-08T14:38:51;14.07;;;10.02;;
22490;SDS011;11412;50.802;4.350;2024-03-08T14:41:18;14.73;;;9.80;;